Time;durP1;ratioP1;P1;durP2;ratioP2;P2;SDS_P1;SDS_P2;PMS_P1;PMS_P2;Temp;Humidity;BMP_temperature;BMP_pressure;BME280_temperature;BME280_humidity;BME280_pressure;Samples;Min_cycle;Max_cycle;Signal;HPM_P1;HPM_P2
2024/04/22 00:00:15;;;;;;;2.45;2.25;;;;;;;7.29;78.38;93101.16;568947;26;782;-75
2024/04/22 00:00:30;;;;;;;2.33;2.17;;;;;;;7.16;78.43;93077.25;569010;26;837;-74
2024/04/22 00:00:46;;;;;;;2.33;2.13;;;;;;;7.18;78.46;93096.66;568974;26;929;-74
2024/04/22 00:01:01;;;;;;;2.30;2.10;;;;;;;7.16;78.33;93104.72;569009;26;917;-74
2024/04/22 00:01:16;;;;;;;2.20;2.00;;;;;;;7.18;78.42;93106.91;568995;26;1038;-75
2024/04/22 00:01:32;;;;;;;2.20;2.00;;;;;;;7.18;78.54;93112.41;569050;26;862;-76
2024/04/22 00:01:47;;;;;;;2.30;2.10;;;;;;;7.18;78.55;93104.91;568781;26;842;-75
2024/04/22 00:02:03;;;;;;;2.20;2.00;;;;;;;7.22;78.51;93107.31;568987;26;832;-75
2024/04/22 00:02:19;;;;;;;2.13;1.92;;;;;;;7.22;78.33;93108.06;568937;26;960;-75
2024/04/22 00:02:34;;;;;;;2.00;1.90;;;;;;;7.26;78.43;93102.97;568980;26;770;-75
2024/04/22 00:02:50;;;;;;;2.33;2.13;;;;;;;7.28;78.07;93103.16;569026;26;924;-75
2024/04/22 00:03:05;;;;;;;2.13;1.93;;;;;;;7.29;78.39;93099.16;568900;26;957;-75
2024/04/22 00:03:21;;;;;;;1.77;1.67;;;;;;;7.25;78.47;93095.28;568676;26;791;-74
2024/04/22 00:03:36;;;;;;;2.00;1.83;;;;;;;7.19;78.38;93095.38;568565;26;797;-74
2024/04/22 00:03:51;;;;;;;2.10;2.00;;;;;;;7.17;78.57;93100.69;564600;26;838;-74
2024/04/22 00:04:07;;;;;;;2.17;1.97;;;;;;;7.14;78.75;93101.75;564930;26;850;-74
2024/04/22 00:04:22;;;;;;;2.30;2.10;;;;;;;7.18;78.60;93115.16;564950;26;968;-74
2024/04/22 00:04:38;;;;;;;2.45;2.25;;;;;;;7.18;78.67;93107.66;564936;26;787;-74
2024/04/22 00:04:53;;;;;;;2.53;2.17;;;;;;;7.19;78.69;93114.59;564931;26;1175;-75
2024/04/22 00:05:10;;;;;;;2.33;2.13;;;;;;;7.21;78.90;93105.84;564953;26;794;-75
2024/04/22 00:05:25;;;;;;;2.45;2.22;;;;;;;7.22;78.83;93116.28;564983;26;873;-75
2024/04/22 00:05:41;;;;;;;2.55;2.30;;;;;;;7.23;78.54;93112.28;565824;26;1123;-74
2024/04/22 00:05:56;;;;;;;2.60;2.40;;;;;;;7.23;78.64;93106.78;568922;26;940;-74
2024/04/22 00:06:12;;;;;;;2.47;2.25;;;;;;;7.21;78.48;93111.34;569028;26;778;-74
2024/04/22 00:06:27;;;;;;;2.70;2.00;;;;;;;7.23;78.48;93112.28;568981;26;817;-73
2024/04/22 00:06:46;;;;;;;3.33;1.95;;;;;;;7.21;78.37;93103.81;569032;26;861;-74
2024/04/22 00:07:01;;;;;;;2.70;2.10;;;;;;;7.26;78.30;93110.47;568901;26;857;-74
2024/04/22 00:07:17;;;;;;;2.40;2.20;;;;;;;7.27;78.31;93115.44;568894;26;909;-74
2024/04/22 00:07:32;;;;;;;2.57;2.37;;;;;;;7.27;78.38;93109.94;569100;26;825;-74
2024/04/22 00:07:47;;;;;;;2.57;2.37;;;;;;;7.26;78.24;93122.19;569047;26;854;-74
2024/04/22 00:08:03;;;;;;;2.90;2.15;;;;;;;7.27;78.52;93114.69;569022;26;948;-74
2024/04/22 00:08:19;;;;;;;2.67;2.25;;;;;;;7.24;78.48;93107.50;568851;26;985;-74
2024/04/22 00:08:34;;;;;;;2.50;2.30;;;;;;;7.17;78.41;93111.66;568994;26;774;-74
2024/04/22 00:08:50;;;;;;;2.30;2.10;;;;;;;7.17;78.82;93119.19;569009;26;869;-73
2024/04/22 00:09:05;;;;;;;2.10;1.90;;;;;;;7.14;78.87;93112.75;568938;26;912;-74
2024/04/22 00:09:20;;;;;;;2.30;2.10;;;;;;;7.15;79.04;93116.94;569018;26;828;-74
2024/04/22 00:09:36;;;;;;;2.83;2.20;;;;;;;7.12;79.25;93111.81;568968;26;878;-75
2024/04/22 00:09:51;;;;;;;2.57;2.03;;;;;;;7.11;79.14;93115.81;569040;26;904;-74
2024/04/22 00:10:07;;;;;;;1.98;1.88;;;;;;;7.10;79.32;93112.34;568846;26;948;-74
2024/04/22 00:10:23;;;;;;;2.30;2.10;;;;;;;7.11;79.39;93108.31;568932;26;854;-76
2024/04/22 00:10:39;;;;;;;2.58;2.25;;;;;;;7.14;79.43;93110.00;568997;26;842;-76
2024/04/22 00:10:59;;;;;;;2.40;2.20;;;;;;;7.17;79.09;93106.16;569001;26;853;-75
2024/04/22 00:11:14;;;;;;;2.42;2.22;;;;;;;7.19;79.27;93108.41;569059;26;817;-75
2024/04/22 00:11:30;;;;;;;2.35;2.15;;;;;;;7.22;78.93;93110.06;568895;26;802;-75
2024/04/22 00:11:45;;;;;;;2.23;2.03;;;;;;;7.23;79.19;93111.53;568952;26;913;-75
2024/04/22 00:12:01;;;;;;;2.47;2.17;;;;;;;7.05;78.92;93088.50;568878;26;794;-76
2024/04/22 00:12:16;;;;;;;2.63;2.43;;;;;;;7.25;78.73;93101.50;568976;26;1023;-75
2024/04/22 00:12:32;;;;;;;2.63;2.43;;;;;;;7.23;78.83;93106.78;569047;26;944;-76
2024/04/22 00:12:47;;;;;;;2.53;2.33;;;;;;;7.25;79.04;93111.75;568960;26;829;-75
2024/04/22 00:13:03;;;;;;;2.50;2.20;;;;;;;7.25;78.97;93107.00;568987;26;920;-75
2024/04/22 00:13:18;;;;;;;2.45;2.25;;;;;;;7.26;79.12;93108.44;569033;26;794;-75
2024/04/22 00:13:34;;;;;;;2.37;2.17;;;;;;;7.28;78.88;93108.66;569010;26;921;-75
2024/04/22 00:13:50;;;;;;;2.30;2.10;;;;;;;7.28;78.93;93105.91;568999;26;1044;-74
2024/04/22 00:14:06;;;;;;;2.40;2.20;;;;;;;7.28;78.77;93100.41;568969;26;905;-74
2024/04/22 00:14:21;;;;;;;2.20;2.00;;;;;;;7.12;78.51;93087.09;568901;26;837;-74
2024/04/22 00:14:36;;;;;;;2.20;2.00;;;;;;;7.25;78.78;93111.75;568933;26;825;-76
2024/04/22 00:14:52;;;;;;;2.38;2.17;;;;;;;7.22;78.66;93110.78;569017;26;833;-75
2024/04/22 00:15:07;;;;;;;2.47;2.27;;;;;;;7.22;78.63;93108.06;568899;26;822;-75
2024/04/22 00:15:23;;;;;;;2.45;2.25;;;;;;;7.22;78.81;93113.53;569070;26;845;-75
2024/04/22 00:15:38;;;;;;;2.47;2.27;;;;;;;7.25;78.73;93112.50;568889;26;889;-75
2024/04/22 00:15:54;;;;;;;2.28;2.08;;;;;;;7.28;78.42;93114.16;569045;26;875;-75
2024/04/22 00:16:09;;;;;;;2.23;2.07;;;;;;;7.27;78.52;93109.19;568953;26;807;-75
2024/04/22 00:16:25;;;;;;;2.30;2.10;;;;;;;7.28;78.68;93107.91;568977;26;810;-74
2024/04/22 00:16:40;;;;;;;2.07;1.97;;;;;;;7.30;78.34;93110.84;569059;26;889;-75
2024/04/22 00:16:57;;;;;;;2.17;2.00;;;;;;;7.30;78.44;93106.09;568879;26;829;-75
2024/04/22 00:17:12;;;;;;;2.38;2.17;;;;;;;7.33;78.01;93109.78;568998;26;884;-76
2024/04/22 00:17:28;;;;;;;2.60;2.40;;;;;;;7.34;78.36;93114.75;569048;26;905;-76
2024/04/22 00:17:43;;;;;;;2.53;2.33;;;;;;;7.33;78.35;93110.53;569033;26;857;-76
2024/04/22 00:17:59;;;;;;;2.30;2.10;;;;;;;7.35;78.32;93112.75;568979;26;869;-76
2024/04/22 00:18:14;;;;;;;2.55;2.35;;;;;;;7.37;78.24;93116.44;568966;26;857;-76
2024/04/22 00:18:29;;;;;;;2.60;2.40;;;;;;;7.40;78.39;93114.63;568870;26;957;-75
2024/04/22 00:18:45;;;;;;;2.60;2.40;;;;;;;7.40;78.32;93112.63;569028;26;860;-76
2024/04/22 00:19:01;;;;;;;2.70;2.50;;;;;;;7.42;78.50;93112.81;568839;26;1849;-75
2024/04/22 00:19:16;;;;;;;2.80;2.30;;;;;;;7.43;78.37;93108.78;568911;26;850;-75
2024/04/22 00:19:32;;;;;;;3.90;2.30;;;;;;;7.46;78.19;93113.22;568965;26;809;-76
2024/04/22 00:19:48;;;;;;;2.97;2.30;;;;;;;7.46;78.21;93109.72;568880;26;822;-75
2024/04/22 00:20:04;;;;;;;2.78;2.42;;;;;;;7.47;78.24;93113.97;569082;26;897;-76
2024/04/22 00:20:19;;;;;;;3.25;2.70;;;;;;;7.49;78.14;93111.41;568906;26;917;-75
2024/04/22 00:20:39;;;;;;;2.70;2.50;;;;;;;7.40;78.28;93107.13;568997;26;944;-76
2024/04/22 00:20:55;;;;;;;2.58;2.38;;;;;;;7.40;78.35;93111.88;568987;26;869;-75
2024/04/22 00:21:10;;;;;;;2.70;2.50;;;;;;;7.34;78.21;93105.78;568898;26;896;-75
2024/04/22 00:21:26;;;;;;;2.40;2.20;;;;;;;7.35;78.22;93121.72;568975;26;786;-75
2024/04/22 00:21:41;;;;;;;2.03;1.90;;;;;;;7.34;78.35;93112.00;568962;26;862;-75
2024/04/22 00:21:56;;;;;;;1.93;1.83;;;;;;;7.35;78.27;93118.22;568921;26;960;-75
2024/04/22 00:22:12;;;;;;;2.30;2.10;;;;;;;7.35;78.16;93113.47;568792;26;1340;-75
2024/04/22 00:22:28;;;;;;;2.55;2.35;;;;;;;7.36;78.08;93123.19;568760;26;878;-75
2024/04/22 00:22:43;;;;;;;2.60;2.35;;;;;;;7.37;78.07;93113.69;569018;26;802;-75
2024/04/22 00:22:58;;;;;;;2.50;2.30;;;;;;;7.39;77.97;93113.13;568961;26;870;-74
2024/04/22 00:23:14;;;;;;;2.38;2.17;;;;;;;7.36;78.00;93127.97;568984;26;913;-75
2024/04/22 00:23:29;;;;;;;2.40;2.20;;;;;;;7.28;78.30;93119.63;568981;26;925;-74
2024/04/22 00:23:45;;;;;;;2.27;2.07;;;;;;;7.24;78.57;93116.50;569029;26;778;-74
2024/04/22 00:24:01;;;;;;;1.95;1.85;;;;;;;7.08;78.45;93098.38;568921;26;886;-75
2024/04/22 00:24:16;;;;;;;2.10;1.90;;;;;;;7.19;78.76;93114.59;568879;26;814;-75
2024/04/22 00:24:31;;;;;;;2.60;2.10;;;;;;;7.23;78.75;93119.78;568982;26;841;-75
2024/04/22 00:24:47;;;;;;;2.37;2.10;;;;;;;7.23;78.85;93120.53;568968;26;903;-75
2024/04/22 00:25:03;;;;;;;2.03;1.92;;;;;;;7.25;78.84;93120.72;568927;26;929;-75
2024/04/22 00:25:18;;;;;;;2.05;1.95;;;;;;;7.26;78.75;93124.94;568871;26;849;-75
2024/04/22 00:25:33;;;;;;;2.27;2.07;;;;;;;7.26;78.43;93122.19;569062;26;862;-74
2024/04/22 00:25:49;;;;;;;2.37;2.17;;;;;;;7.26;78.41;93124.94;569021;26;837;-75
2024/04/22 00:26:04;;;;;;;2.80;2.15;;;;;;;7.26;78.62;93122.19;568857;26;940;-75
2024/04/22 00:26:20;;;;;;;2.60;2.03;;;;;;;7.28;78.80;93127.13;568943;26;924;-75
2024/04/22 00:26:35;;;;;;;2.17;2.03;;;;;;;7.28;78.97;93127.88;568894;26;825;-75
2024/04/22 00:26:51;;;;;;;2.20;2.00;;;;;;;7.31;78.67;93120.56;569013;26;829;-75
2024/04/22 00:27:06;;;;;;;2.10;1.88;;;;;;;7.31;78.72;93124.06;568904;26;913;-75
2024/04/22 00:27:22;;;;;;;2.03;1.87;;;;;;;7.28;78.85;93119.63;568927;26;809;-75
2024/04/22 00:27:37;;;;;;;2.30;2.10;;;;;;;7.32;78.54;93128.28;568957;26;809;-75
2024/04/22 00:27:53;;;;;;;2.30;2.13;;;;;;;7.32;78.80;93133.75;568988;26;853;-75
2024/04/22 00:28:08;;;;;;;2.13;2.00;;;;;;;7.32;78.74;93127.56;564755;26;869;-74
2024/04/22 00:28:24;;;;;;;2.00;1.90;;;;;;;7.27;78.63;93129.16;565069;26;976;-74
2024/04/22 00:28:39;;;;;;;2.17;2.00;;;;;;;7.27;78.87;93125.66;564973;26;845;-75
2024/04/22 00:28:54;;;;;;;2.30;2.10;;;;;;;7.25;78.62;93128.97;564978;26;913;-75
2024/04/22 00:29:10;;;;;;;2.57;2.37;;;;;;;7.19;78.69;93133.09;564925;26;791;-76
2024/04/22 00:29:25;;;;;;;2.60;2.40;;;;;;;7.21;78.71;93134.03;564863;26;809;-75
2024/04/22 00:29:41;;;;;;;2.43;2.23;;;;;;;7.18;78.85;93124.13;561080;26;1251;-75
2024/04/22 00:29:56;;;;;;;2.20;2.00;;;;;;;7.18;78.64;93134.38;561780;26;881;-75
2024/04/22 00:30:12;;;;;;;1.90;1.80;;;;;;;7.16;78.58;93126.66;565007;26;825;-75
2024/04/22 00:30:27;;;;;;;2.03;1.90;;;;;;;7.17;78.64;93132.91;564954;26;945;-75
2024/04/22 00:30:43;;;;;;;2.25;2.05;;;;;;;7.18;78.45;93134.38;565008;26;933;-75
2024/04/22 00:30:58;;;;;;;2.27;2.07;;;;;;;7.21;78.33;93139.50;564919;26;786;-75
2024/04/22 00:31:13;;;;;;;2.30;2.10;;;;;;;7.22;78.63;93132.75;564897;26;881;-75
2024/04/22 00:31:29;;;;;;;2.30;2.10;;;;;;;7.21;78.62;93131.28;565653;26;977;-75
2024/04/22 00:31:45;;;;;;;2.30;2.10;;;;;;;7.21;78.68;93128.53;564807;26;1236;-74
2024/04/22 00:32:00;;;;;;;2.47;2.27;;;;;;;7.07;78.83;93115.41;564941;26;882;-75
2024/04/22 00:32:16;;;;;;;2.30;2.10;;;;;;;7.22;78.63;93141.00;564795;26;889;-76
2024/04/22 00:32:31;;;;;;;2.30;2.10;;;;;;;7.23;79.18;93136.25;564963;26;940;-76
2024/04/22 00:32:46;;;;;;;2.38;2.17;;;;;;;7.22;79.11;93149.25;564980;26;829;-75
2024/04/22 00:33:02;;;;;;;2.10;1.90;;;;;;;7.23;78.81;93139.75;565076;26;841;-76
2024/04/22 00:33:18;;;;;;;2.30;2.10;;;;;;;7.24;78.89;93141.19;564870;26;794;-75
2024/04/22 00:33:33;;;;;;;4.03;2.23;;;;;;;7.23;79.19;93141.75;565611;26;790;-75
2024/04/22 00:33:52;;;;;;;4.00;2.20;;;;;;;7.24;79.21;93143.94;568834;26;839;-75
2024/04/22 00:34:08;;;;;;;2.25;2.10;;;;;;;7.25;79.17;93139.19;568823;26;885;-74
2024/04/22 00:34:23;;;;;;;2.27;2.07;;;;;;;7.23;79.01;93139.75;569037;26;885;-73
2024/04/22 00:34:39;;;;;;;2.20;2.05;;;;;;;7.21;78.89;93147.75;568941;26;1040;-74
2024/04/22 00:34:54;;;;;;;2.40;2.20;;;;;;;7.22;78.99;93137.50;568924;26;821;-73
2024/04/22 00:35:09;;;;;;;2.40;2.20;;;;;;;7.22;78.85;93138.25;568942;26;901;-75
2024/04/22 00:35:25;;;;;;;2.13;1.93;;;;;;;7.21;78.78;93141.53;568979;26;814;-76
2024/04/22 00:35:40;;;;;;;1.90;1.80;;;;;;;7.22;78.52;93141.00;568929;26;810;-75
2024/04/22 00:35:59;;;;;;;1.83;1.73;;;;;;;7.24;78.45;93138.47;568992;26;813;-75
2024/04/22 00:36:15;;;;;;;2.00;1.90;;;;;;;7.25;78.48;93136.44;568875;26;852;-75
2024/04/22 00:36:30;;;;;;;2.13;2.03;;;;;;;7.28;78.30;93146.34;568914;26;1032;-75
2024/04/22 00:36:46;;;;;;;2.20;2.10;;;;;;;7.09;78.17;93107.38;568926;26;854;-75
2024/04/22 00:37:01;;;;;;;2.33;2.13;;;;;;;7.30;78.28;93141.81;568938;26;853;-75
2024/04/22 00:37:17;;;;;;;2.20;2.00;;;;;;;7.31;78.34;93143.28;568839;26;837;-75
2024/04/22 00:37:32;;;;;;;2.13;1.93;;;;;;;7.32;78.19;93144.03;569061;26;912;-76
2024/04/22 00:37:48;;;;;;;2.30;2.10;;;;;;;7.30;78.25;93141.81;568795;26;1644;-75
2024/04/22 00:38:04;;;;;;;2.30;2.10;;;;;;;7.31;78.29;93139.81;568950;26;794;-75
2024/04/22 00:38:19;;;;;;;2.17;1.98;;;;;;;7.27;77.93;93142.16;568879;26;986;-75
2024/04/22 00:38:35;;;;;;;2.20;2.00;;;;;;;7.28;78.09;93144.34;568917;26;835;-76
2024/04/22 00:38:50;;;;;;;2.37;2.17;;;;;;;7.29;77.85;93142.34;568821;26;964;-76
2024/04/22 00:39:06;;;;;;;2.60;2.40;;;;;;;7.30;77.90;93141.06;568609;26;1876;-75
2024/04/22 00:39:21;;;;;;;2.30;2.10;;;;;;;7.28;78.23;93143.59;568956;26;778;-74
2024/04/22 00:39:37;;;;;;;1.98;1.88;;;;;;;7.27;77.83;93140.16;568817;26;1194;-74
2024/04/22 00:39:53;;;;;;;2.07;1.97;;;;;;;7.28;78.15;93144.34;568949;26;936;-75
2024/04/22 00:40:08;;;;;;;2.20;2.10;;;;;;;7.29;78.11;93139.59;568911;26;900;-74
2024/04/22 00:40:24;;;;;;;2.40;2.20;;;;;;;7.29;77.93;93148.59;568871;26;888;-74
2024/04/22 00:40:39;;;;;;;2.15;1.95;;;;;;;7.29;77.84;93145.84;568875;26;802;-75
2024/04/22 00:40:55;;;;;;;2.07;1.87;;;;;;;7.27;77.77;93150.38;568993;26;896;-75
2024/04/22 00:41:11;;;;;;;2.15;1.95;;;;;;;7.28;77.67;93143.59;568956;26;813;-75
2024/04/22 00:41:30;;;;;;;1.95;1.85;;;;;;;7.28;78.05;93146.34;568919;26;844;-75
2024/04/22 00:41:45;;;;;;;2.20;2.05;;;;;;;7.28;77.70;93146.34;568860;26;846;-76
2024/04/22 00:42:01;;;;;;;2.20;2.10;;;;;;;7.26;77.94;93146.16;568866;26;778;-75
2024/04/22 00:42:16;;;;;;;2.10;2.00;;;;;;;7.32;77.77;93146.78;568842;26;798;-75
2024/04/22 00:42:32;;;;;;;2.20;2.00;;;;;;;7.32;77.81;93144.03;568913;26;893;-75
2024/04/22 00:42:48;;;;;;;2.20;2.00;;;;;;;7.32;77.98;93146.78;568894;26;814;-75
2024/04/22 00:43:04;;;;;;;2.30;2.10;;;;;;;7.33;77.79;93151.72;568865;26;884;-75
2024/04/22 00:43:19;;;;;;;2.47;2.27;;;;;;;7.33;77.79;93148.97;568847;26;813;-76
2024/04/22 00:43:34;;;;;;;2.40;2.20;;;;;;;7.34;77.84;93147.69;568898;26;821;-75
2024/04/22 00:43:50;;;;;;;2.20;2.10;;;;;;;7.35;77.45;93149.19;568967;26;794;-75
2024/04/22 00:44:05;;;;;;;2.10;1.97;;;;;;;7.36;77.56;93150.66;568933;26;909;-75
2024/04/22 00:44:21;;;;;;;2.17;1.98;;;;;;;7.38;77.36;93152.88;568874;26;900;-75
2024/04/22 00:44:36;;;;;;;2.47;2.27;;;;;;;7.38;77.53;93153.63;568847;26;770;-75
2024/04/22 00:44:52;;;;;;;2.35;2.17;;;;;;;7.40;77.49;93153.81;568943;26;1349;-75
2024/04/22 00:45:12;;;;;;;2.27;2.10;;;;;;;7.36;77.28;93160.91;569006;26;971;-76
2024/04/22 00:45:30;;;;;;;2.25;2.05;;;;;;;7.34;77.14;93152.47;568909;26;873;-74
2024/04/22 00:45:45;;;;;;;2.30;2.10;;;;;;;7.28;77.52;93146.34;564966;26;873;-74
2024/04/22 00:46:01;;;;;;;2.22;2.03;;;;;;;7.26;77.75;93144.16;564798;26;940;-74
2024/04/22 00:46:17;;;;;;;2.23;2.03;;;;;;;7.24;77.45;93148.69;564861;26;901;-73
2024/04/22 00:46:32;;;;;;;2.10;1.90;;;;;;;7.26;77.68;93157.88;564952;26;857;-74
2024/04/22 00:46:47;;;;;;;2.25;2.05;;;;;;;7.28;77.76;93157.34;564942;26;826;-74
2024/04/22 00:47:03;;;;;;;2.70;2.50;;;;;;;7.27;77.77;93151.13;564979;26;881;-74
2024/04/22 00:47:18;;;;;;;2.43;2.23;;;;;;;7.29;77.75;93150.59;564878;26;806;-74
2024/04/22 00:47:34;;;;;;;2.08;1.98;;;;;;;7.25;77.63;93155.69;561813;26;889;-75
2024/04/22 00:47:50;;;;;;;2.57;2.37;;;;;;;7.20;77.61;93165.50;561249;26;818;-74
2024/04/22 00:48:06;;;;;;;2.42;2.22;;;;;;;7.20;77.80;93162.03;561148;26;846;-74
2024/04/22 00:48:25;;;;;;;2.15;1.98;;;;;;;7.20;77.87;93162.03;561217;26;849;-74
2024/04/22 00:48:40;;;;;;;2.08;1.98;;;;;;;7.20;77.93;93160.03;561134;26;1007;-75
2024/04/22 00:48:56;;;;;;;2.33;2.13;;;;;;;7.21;77.97;93155.28;561133;26;914;-74
2024/04/22 00:49:11;;;;;;;2.40;2.20;;;;;;;7.09;78.11;93140.31;561185;26;948;-75
2024/04/22 00:49:27;;;;;;;2.40;2.20;;;;;;;7.23;77.95;93160.97;562844;26;854;-75
2024/04/22 00:49:42;;;;;;;2.33;2.13;;;;;;;7.23;77.99;93160.97;566734;26;817;-75
2024/04/22 00:49:58;;;;;;;2.30;2.10;;;;;;;7.26;77.89;93157.13;568892;26;818;-76
2024/04/22 00:50:13;;;;;;;2.38;2.17;;;;;;;7.26;77.81;93159.88;568818;26;754;-76
2024/04/22 00:50:30;;;;;;;2.47;2.28;;;;;;;7.26;77.99;93173.59;568869;26;897;-75
2024/04/22 00:50:46;;;;;;;2.47;2.27;;;;;;;7.26;78.16;93151.66;568803;26;995;-75
2024/04/22 00:51:02;;;;;;;2.60;2.40;;;;;;;7.24;78.06;93156.94;568829;26;1094;-75
2024/04/22 00:51:17;;;;;;;2.60;2.40;;;;;;;7.23;78.05;93166.47;568884;26;845;-75
2024/04/22 00:51:33;;;;;;;2.50;2.30;;;;;;;7.22;78.41;93165.72;568882;26;853;-75
2024/04/22 00:51:49;;;;;;;2.60;2.40;;;;;;;7.23;78.20;93169.94;564875;26;1124;-75
2024/04/22 00:52:05;;;;;;;2.70;2.50;;;;;;;7.25;78.04;93167.41;564922;26;834;-75
2024/04/22 00:52:20;;;;;;;2.50;2.30;;;;;;;7.26;78.09;93157.13;564967;26;941;-75
2024/04/22 00:52:36;;;;;;;2.20;2.10;;;;;;;7.04;78.23;93132.94;564907;26;829;-75
2024/04/22 00:52:52;;;;;;;2.40;2.20;;;;;;;7.22;78.23;93165.72;564953;26;881;-75
2024/04/22 00:53:07;;;;;;;2.60;2.40;;;;;;;7.23;78.41;93161.72;561060;26;806;-75
2024/04/22 00:53:24;;;;;;;2.50;2.30;;;;;;;7.21;78.37;93166.97;561257;26;978;-75
2024/04/22 00:53:40;;;;;;;2.40;2.20;;;;;;;7.24;78.19;93178.91;562587;26;838;-75
2024/04/22 00:53:56;;;;;;;2.67;2.27;;;;;;;7.22;77.96;93170.47;561267;26;862;-74
2024/04/22 00:54:11;;;;;;;2.53;2.33;;;;;;;7.15;78.19;93163.63;561179;26;869;-73
2024/04/22 00:54:27;;;;;;;2.42;2.25;;;;;;;7.11;78.50;93171.44;561129;26;921;-74
2024/04/22 00:54:42;;;;;;;2.50;2.30;;;;;;;7.09;78.40;93170.50;561218;26;1082;-74
2024/04/22 00:54:58;;;;;;;2.60;2.40;;;;;;;7.09;78.49;93165.75;561187;26;791;-75
2024/04/22 00:55:14;;;;;;;2.45;2.25;;;;;;;7.09;78.37;93165.00;561245;26;853;-74
2024/04/22 00:55:29;;;;;;;2.53;2.33;;;;;;;7.11;78.67;93165.97;561157;26;898;-74
2024/04/22 00:55:45;;;;;;;2.70;2.50;;;;;;;7.15;78.61;93169.09;561998;26;798;-74
2024/04/22 00:56:00;;;;;;;2.70;2.50;;;;;;;7.14;78.68;93166.91;561143;26;858;-74
2024/04/22 00:56:17;;;;;;;2.72;2.53;;;;;;;7.14;78.57;93167.66;561076;26;937;-74
2024/04/22 00:56:32;;;;;;;2.50;2.30;;;;;;;7.12;78.70;93166.69;561268;26;992;-74
2024/04/22 00:56:48;;;;;;;2.40;2.20;;;;;;;7.10;78.38;93161.75;561254;26;895;-74
2024/04/22 00:57:04;;;;;;;2.20;2.07;;;;;;;7.11;78.57;93167.97;562224;26;782;-75
2024/04/22 00:57:19;;;;;;;2.42;2.22;;;;;;;7.13;78.44;93171.66;561170;26;827;-74
2024/04/22 00:57:37;;;;;;;2.67;2.47;;;;;;;7.14;78.35;93170.41;561068;26;964;-74
2024/04/22 00:57:56;;;;;;;2.45;2.25;;;;;;;7.14;78.66;93167.66;559010;26;901;-75
2024/04/22 00:58:13;;;;;;;2.63;2.42;;;;;;;7.15;78.57;93168.38;561245;26;854;-74
2024/04/22 00:58:28;;;;;;;2.75;2.55;;;;;;;7.15;78.62;93169.09;561098;26;1450;-74
2024/04/22 00:58:46;;;;;;;2.53;2.33;;;;;;;7.13;78.69;93168.16;561142;26;861;-74
2024/04/22 00:59:01;;;;;;;2.50;2.30;;;;;;;7.12;78.61;93169.44;557504;26;1896;-75
2024/04/22 00:59:17;;;;;;;2.50;2.30;;;;;;;7.11;78.37;93167.97;560231;26;853;-74
2024/04/22 00:59:32;;;;;;;2.63;2.43;;;;;;;7.12;78.57;93166.69;561175;26;967;-75
2024/04/22 00:59:48;;;;;;;2.78;2.55;;;;;;;7.13;78.61;93171.66;563580;26;802;-75
2024/04/22 01:00:04;;;;;;;2.57;2.37;;;;;;;7.11;78.19;93176.94;564895;26;924;-75
2024/04/22 01:00:20;;;;;;;2.47;2.28;;;;;;;7.13;78.21;93174.41;564827;26;926;-75
2024/04/22 01:00:36;;;;;;;2.47;2.28;;;;;;;7.15;78.15;93171.84;564818;26;910;-75
2024/04/22 01:00:51;;;;;;;2.40;2.20;;;;;;;7.17;78.30;93171.34;564990;26;822;-75
2024/04/22 01:01:09;;;;;;;2.47;2.28;;;;;;;7.18;78.30;93172.81;564891;26;810;-75
2024/04/22 01:01:26;;;;;;;2.85;2.65;;;;;;;7.18;78.07;93170.81;561085;26;922;-75
2024/04/22 01:01:42;;;;;;;2.75;2.55;;;;;;;7.17;77.80;93183.03;563046;26;1147;-75
2024/04/22 01:01:57;;;;;;;2.50;2.30;;;;;;;7.16;78.03;93178.84;561207;26;815;-75
2024/04/22 01:02:13;;;;;;;2.55;2.35;;;;;;;7.17;77.98;93176.84;561305;26;838;-75
2024/04/22 01:02:29;;;;;;;2.70;2.50;;;;;;;7.17;78.16;93176.84;561140;26;846;-75
2024/04/22 01:02:44;;;;;;;2.72;2.53;;;;;;;7.15;78.54;93180.09;560983;26;949;-75
2024/04/22 01:03:01;;;;;;;2.72;2.50;;;;;;;7.13;78.19;93177.16;561108;26;865;-75
2024/04/22 01:03:16;;;;;;;2.55;2.35;;;;;;;7.06;78.39;93172.31;563074;26;850;-75
2024/04/22 01:03:33;;;;;;;2.33;2.20;;;;;;;7.05;78.40;93168.09;564922;26;925;-74
2024/04/22 01:03:50;;;;;;;2.47;2.28;;;;;;;7.04;78.34;93174.84;562437;26;910;-75
2024/04/22 01:04:05;;;;;;;2.40;2.20;;;;;;;7.03;78.50;93172.63;564810;26;1004;-75
2024/04/22 01:04:21;;;;;;;2.40;2.20;;;;;;;6.98;78.58;93174.22;561108;26;842;-74
2024/04/22 01:04:37;;;;;;;2.35;2.15;;;;;;;6.95;78.81;93180.81;561141;26;909;-74
2024/04/22 01:04:52;;;;;;;2.33;2.20;;;;;;;6.91;78.82;93166.63;557453;26;1256;-74
2024/04/22 01:05:07;;;;;;;2.63;2.43;;;;;;;6.93;79.00;93182.59;557547;26;790;-75
2024/04/22 01:05:24;;;;;;;2.63;2.42;;;;;;;6.95;79.17;93175.31;557421;26;831;-74
2024/04/22 01:05:39;;;;;;;2.50;2.30;;;;;;;6.96;79.05;93179.53;558405;26;847;-74
2024/04/22 01:05:55;;;;;;;2.43;2.23;;;;;;;6.98;79.01;93178.97;561139;26;787;-74
2024/04/22 01:06:10;;;;;;;2.50;2.30;;;;;;;6.96;79.32;93179.53;561158;26;925;-74
2024/04/22 01:06:25;;;;;;;2.93;2.70;;;;;;;6.96;79.81;93181.53;561139;26;842;-74
2024/04/22 01:06:41;;;;;;;3.10;2.80;;;;;;;6.98;79.90;93176.22;561881;26;1114;-74
2024/04/22 01:06:56;;;;;;;2.97;2.70;;;;;;;6.97;79.51;93175.50;565040;26;822;-75
2024/04/22 01:07:12;;;;;;;2.77;2.57;;;;;;;6.93;79.69;93174.38;561281;26;811;-74
2024/04/22 01:07:27;;;;;;;2.60;2.40;;;;;;;6.98;79.90;93187.22;561081;26;964;-74
2024/04/22 01:07:43;;;;;;;2.40;2.20;;;;;;;6.95;79.77;93171.81;561104;26;956;-74
2024/04/22 01:07:58;;;;;;;2.35;2.15;;;;;;;6.93;79.43;93180.56;561171;26;841;-74
2024/04/22 01:08:15;;;;;;;2.50;2.30;;;;;;;6.94;79.39;93182.06;561103;26;842;-74
2024/04/22 01:08:30;;;;;;;2.38;2.28;;;;;;;6.93;79.40;93180.56;561000;26;1013;-74
2024/04/22 01:08:46;;;;;;;2.67;2.47;;;;;;;6.92;79.31;93176.38;561237;26;972;-74
2024/04/22 01:09:01;;;;;;;2.45;2.33;;;;;;;6.86;78.97;93178.50;562074;26;818;-73
2024/04/22 01:09:17;;;;;;;2.40;2.20;;;;;;;6.86;78.92;93178.50;565061;26;830;-74
2024/04/22 01:09:33;;;;;;;2.85;2.50;;;;;;;6.88;78.94;93193.16;565202;26;901;-74
2024/04/22 01:09:48;;;;;;;2.55;2.35;;;;;;;6.86;78.98;93181.97;565093;26;874;-74
2024/04/22 01:10:04;;;;;;;2.47;2.27;;;;;;;6.84;79.22;93186.53;561117;26;826;-74
2024/04/22 01:10:20;;;;;;;2.63;2.42;;;;;;;6.84;79.24;93186.53;561042;26;849;-74
2024/04/22 01:10:36;;;;;;;2.55;2.35;;;;;;;6.80;79.39;93188.81;561013;26;878;-75
2024/04/22 01:10:51;;;;;;;2.40;2.20;;;;;;;6.76;79.12;93178.19;561215;26;1114;-74
2024/04/22 01:11:07;;;;;;;2.50;2.30;;;;;;;6.77;79.35;93176.94;561087;26;854;-74
2024/04/22 01:11:22;;;;;;;2.40;2.20;;;;;;;6.78;79.33;93188.63;561144;26;814;-74
2024/04/22 01:11:38;;;;;;;2.30;2.10;;;;;;;6.79;79.17;93190.84;561091;26;945;-74
2024/04/22 01:11:53;;;;;;;2.67;2.47;;;;;;;6.79;78.99;93185.38;561337;26;802;-74
2024/04/22 01:12:09;;;;;;;2.90;2.70;;;;;;;6.78;79.64;93185.88;561119;26;815;-74
2024/04/22 01:12:24;;;;;;;2.85;2.60;;;;;;;6.78;79.67;93183.13;561023;26;929;-74
2024/04/22 01:12:40;;;;;;;2.60;2.40;;;;;;;6.77;79.68;93185.16;557346;26;886;-75
2024/04/22 01:12:55;;;;;;;2.53;2.33;;;;;;;6.75;79.80;93181.47;557431;26;930;-74
2024/04/22 01:13:11;;;;;;;2.50;2.30;;;;;;;6.75;79.81;93179.47;558075;26;834;-74
2024/04/22 01:13:26;;;;;;;2.50;2.30;;;;;;;6.75;79.76;93186.97;561050;26;810;-74
2024/04/22 01:13:42;;;;;;;2.97;2.67;;;;;;;6.73;79.67;93184.00;561143;26;803;-74
2024/04/22 01:13:57;;;;;;;2.80;2.60;;;;;;;6.71;79.93;93183.81;561141;26;946;-74
2024/04/22 01:14:13;;;;;;;2.60;2.40;;;;;;;6.70;79.65;93185.81;561050;26;949;-74
2024/04/22 01:14:28;;;;;;;2.63;2.42;;;;;;;6.71;79.74;93181.78;561879;26;838;-74
2024/04/22 01:14:44;;;;;;;2.67;2.47;;;;;;;6.73;79.96;93181.25;561139;26;929;-74
2024/04/22 01:14:59;;;;;;;2.83;2.63;;;;;;;6.74;79.85;93182.72;561245;26;767;-75
2024/04/22 01:15:15;;;;;;;2.70;2.50;;;;;;;6.64;79.83;93165.22;561394;26;909;-74
2024/04/22 01:15:31;;;;;;;2.75;2.55;;;;;;;6.80;79.86;93186.81;561530;26;802;-74
2024/04/22 01:15:46;;;;;;;2.92;2.70;;;;;;;6.81;80.04;93182.81;561612;26;827;-74
2024/04/22 01:16:02;;;;;;;3.10;2.80;;;;;;;6.85;79.86;93185.25;561562;26;794;-74
2024/04/22 01:16:17;;;;;;;3.10;2.80;;;;;;;6.86;80.06;93181.25;561491;26;806;-74
2024/04/22 01:16:33;;;;;;;2.90;2.70;;;;;;;6.82;80.02;93180.84;562203;26;988;-74
2024/04/22 01:16:54;;;;;;;2.90;2.70;;;;;;;6.83;80.21;93174.06;565460;26;929;-74
2024/04/22 01:17:09;;;;;;;3.13;2.85;;;;;;;6.79;80.18;93179.13;565405;26;849;-74
2024/04/22 01:17:38;;;;;;;3.30;3.00;;;;;;;6.72;80.00;93177.78;565442;26;897;-74
2024/04/22 01:17:54;;;;;;;2.55;2.35;;;;;;;6.78;80.00;93181.13;565311;26;901;-74
2024/04/22 01:18:15;;;;;;;2.70;2.50;;;;;;;6.79;79.93;93182.63;565443;26;870;-74